Cherry Point MCAS, Cunningham Field Cherry Point US
ICAO: KNKT
IATA: NKT
Category: Medium
Scheduled Services: No

Elevation: 29 ft
TransAlt. 18000 ft.

Airport Communications:
APP/DEP:29.96
APP/DEP:119.35
ATIS:24.487
CLNC DEL:125.95
GND:128.625
BASE OPS:126.2
PMSV METRO:34.35
TWR:121.3

KNKT Zoom In..

Runways:

(A) RW 05L length 8491 ft width 200 ft
---- / hdg 55

(B) RW 05R length 8188 ft width 200 ft
---- / hdg 55

(C) RW 14L length 8984 ft width 200 ft
---- / hdg 145

(D) RW 14R length 8399 ft width 200 ft
---- / hdg 145

(E) RW 23L length 8188 ft width 200 ft
---- / hdg 235

(F) RW 23R length 8491 ft width 200 ft
ILS 108.90 / hdg 235

(G) RW 32L length 8399 ft width 200 ft
---- / hdg 325

(H) RW 32R length 8984 ft width 200 ft
---- / hdg 325

Location; KNKT
Day. 20 / Time. 03.58 Zulu
* Altimeter: 30.14
* Temperature: 13° c. 55.4°f.
* Wind from: KNK° Speed T kn.
Dewpoint: 02° c.
Visibility: 7 Statute Miles.
Clouds: Clear (manual report).

KNKT 200358Z 35014KT 7SM SKC 13/02 A3014 RMK PK WND 35028/0343 SLP203 T01330017


Wind From KNK°
Speed T kn.

  YouTube Music Video
 
jpsmedia.com for Web Design  worldairports.se 2018   terms of use